FZRD weather

Kabombo Airport
Kabombo, Katanga Province, Congo (Kinshasa)

Public forecast

Using degrees Celsius for public forecast. Weather courtesy of forecast.io.

Closest aviation weather report (METAR) to Kabombo Airport

Report is more than 6 hours old.

Closest report is Kamina Base Airport, 182.6 nm (338.2 km) WSW. Retrieved 2009/09/28 03:00 UTC (11 years ago):

FZSA 280300Z 28006KT 9999 BKN018 23/20 Q1014 NOSIG

Closest aviation forecast (TAF) to Kabombo Airport

Forecast is more than 12 hours old.

Closest forecast is Mbuji Mayi Airport, 276.2 nm (511.5 km) WNW. Retrieved 2019/11/03 12:00 UTC (7 months ago):

TAF FZWA 031100Z 0312/0418 09006KT 9999 SCT024 FEW030CB PROB30 TEMPO 0313/0318 TS BECMG 0322/0400 00000KT FEW012 BECMG 0409/0411 36008KT SCT023 FEW030CB